Time;durP1;ratioP1;P1;durP2;ratioP2;P2;SDS_P1;SDS_P2;PMS_P1;PMS_P2;Temp;Humidity;BMP_temperature;BMP_pressure;BME280_temperature;BME280_humidity;BME280_pressure;Samples;Min_cycle;Max_cycle;Signal;HPM_P1;HPM_P2
2023/01/10 00:01:31;;;;;;;10.45;6.00;;;;;;;;;;5069758;28;20036;-64
2023/01/10 00:03:57;;;;;;;11.15;5.72;;;;;;;;;;5070956;28;20021;-59
2023/01/10 00:06:22;;;;;;;9.70;6.13;;;;;;;;;;5086353;28;20031;-62
2023/01/10 00:08:48;;;;;;;9.25;5.80;;;;;;;;;;5070795;28;20043;-65
2023/01/10 00:13:58;;;;;;;7.47;5.43;;;;;;;;;;5074013;28;20028;-59
2023/01/10 00:16:23;;;;;;;8.48;5.95;;;;;;;;;;5074284;28;20387;-63
2023/01/10 00:18:49;;;;;;;10.23;5.80;;;;;;;;;;5073626;28;20602;-61
2023/01/10 00:21:15;;;;;;;9.77;5.60;;;;;;;;;;5073495;28;20016;-59
2023/01/10 00:23:44;;;;;;;8.95;5.80;;;;;;;;;;5073591;28;20063;-63
2023/01/10 00:26:11;;;;;;;10.88;6.40;;;;;;;;;;5074247;28;20146;-58
2023/01/10 00:28:38;;;;;;;8.68;6.28;;;;;;;;;;5074006;28;20021;-59
2023/01/10 00:31:05;;;;;;;8.63;5.90;;;;;;;;;;5074731;28;20375;-59
2023/01/10 00:33:35;;;;;;;9.02;5.68;;;;;;;;;;5071882;28;20028;-59
2023/01/10 00:36:03;;;;;;;8.48;5.47;;;;;;;;;;5073684;28;20054;-59
2023/01/10 00:38:30;;;;;;;7.93;5.75;;;;;;;;;;5071629;28;20028;-58
2023/01/10 00:40:56;;;;;;;9.18;5.63;;;;;;;;;;5073322;28;20111;-59
2023/01/10 00:46:07;;;;;;;8.52;5.65;;;;;;;;;;5071608;28;20075;-63
2023/01/10 00:48:32;;;;;;;6.70;5.43;;;;;;;;;;5072685;28;20025;-62
2023/01/10 00:50:58;;;;;;;7.78;5.68;;;;;;;;;;5072904;28;20074;-63
2023/01/10 00:53:24;;;;;;;6.55;5.55;;;;;;;;;;5072198;28;20472;-60
2023/01/10 00:55:49;;;;;;;8.98;5.95;;;;;;;;;;5073213;28;20082;-59
2023/01/10 00:58:16;;;;;;;9.98;5.75;;;;;;;;;;5072430;28;20024;-59
2023/01/10 01:00:45;;;;;;;7.70;5.47;;;;;;;;;;5073266;28;20035;-58
2023/01/10 01:03:11;;;;;;;9.70;5.63;;;;;;;;;;5074656;28;20029;-59
2023/01/10 01:05:41;;;;;;;7.28;5.70;;;;;;;;;;5074545;28;20033;-59
2023/01/10 01:08:08;;;;;;;7.78;5.90;;;;;;;;;;5074067;28;20036;-59
2023/01/10 01:10:33;;;;;;;7.03;5.55;;;;;;;;;;5074364;28;20070;-59
2023/01/10 01:13:06;;;;;;;8.48;5.50;;;;;;;;;;5074540;28;20032;-63
2023/01/10 01:15:33;;;;;;;6.90;5.15;;;;;;;;;;5075070;28;20063;-63
2023/01/10 01:17:59;;;;;;;7.38;5.57;;;;;;;;;;5074779;28;20024;-59
2023/01/10 01:20:25;;;;;;;7.47;5.93;;;;;;;;;;5074635;28;20047;-63
2023/01/10 01:22:51;;;;;;;10.43;6.10;;;;;;;;;;5074470;28;20086;-63
2023/01/10 01:25:17;;;;;;;8.13;5.78;;;;;;;;;;5074707;28;20024;-63
2023/01/10 01:27:42;;;;;;;6.97;5.38;;;;;;;;;;5074678;28;20020;-59
2023/01/10 01:30:10;;;;;;;6.55;5.45;;;;;;;;;;5074554;28;20116;-58
2023/01/10 01:32:36;;;;;;;7.55;5.50;;;;;;;;;;5074811;28;20025;-58
2023/01/10 01:35:01;;;;;;;9.82;5.72;;;;;;;;;;5074477;28;20503;-57
2023/01/10 01:37:27;;;;;;;7.05;5.13;;;;;;;;;;5074769;28;20036;-58
2023/01/10 01:39:52;;;;;;;7.30;5.28;;;;;;;;;;5073852;28;20380;-58
2023/01/10 01:42:24;;;;;;;8.07;5.53;;;;;;;;;;5074483;28;20481;-58
2023/01/10 01:45:22;;;;;;;8.40;5.80;;;;;;;;;;5074116;28;20404;-59
2023/01/10 01:47:56;;;;;;;7.53;5.57;;;;;;;;;;5018891;28;20043;-58
2023/01/10 01:50:33;;;;;;;8.05;5.32;;;;;;;;;;5074440;28;20068;-58
2023/01/10 01:53:02;;;;;;;6.95;5.45;;;;;;;;;;5074123;28;20698;-59
2023/01/10 01:55:30;;;;;;;6.82;5.40;;;;;;;;;;5074204;28;20036;-58
2023/01/10 01:57:59;;;;;;;5.30;4.63;;;;;;;;;;5074297;28;20111;-63
2023/01/10 02:00:25;;;;;;;7.10;5.38;;;;;;;;;;5074142;28;20040;-58
2023/01/10 02:02:55;;;;;;;7.57;5.25;;;;;;;;;;5074004;28;20434;-58
2023/01/10 02:05:21;;;;;;;;;;;;;;;;;;5074741;28;20024;-58
2023/01/10 02:07:51;;;;;;;6.07;4.65;;;;;;;;;;5073883;28;19912;-62
2023/01/10 02:10:31;;;;;;;7.53;5.33;;;;;;;;;;5073901;28;20017;-57
2023/01/10 02:13:03;;;;;;;8.65;5.45;;;;;;;;;;5073765;28;20273;-59
2023/01/10 02:15:29;;;;;;;7.30;5.60;;;;;;;;;;5073810;28;20048;-55
2023/01/10 02:17:56;;;;;;;9.05;5.85;;;;;;;;;;5073977;28;20472;-59
2023/01/10 02:20:22;;;;;;;7.40;5.28;;;;;;;;;;5073461;28;20039;-58
2023/01/10 02:23:05;;;;;;;7.93;5.68;;;;;;;;;;5073794;28;20425;-57
2023/01/10 02:25:52;;;;;;;6.43;5.07;;;;;;;;;;5073534;28;20119;-58
2023/01/10 02:28:26;;;;;;;7.75;5.53;;;;;;;;;;5073729;28;20028;-59
2023/01/10 02:31:25;;;;;;;8.35;5.45;;;;;;;;;;5073427;28;20100;-58
2023/01/10 02:34:14;;;;;;;7.18;5.53;;;;;;;;;;4986841;28;20126;-58
2023/01/10 02:36:45;;;;;;;7.10;5.82;;;;;;;;;;5073368;28;20384;-59
2023/01/10 02:39:34;;;;;;;6.03;5.20;;;;;;;;;;5073288;28;20050;-59
2023/01/10 02:42:12;;;;;;;5.25;4.72;;;;;;;;;;5073013;28;20384;-58
2023/01/10 02:45:03;;;;;;;7.07;5.13;;;;;;;;;;5073100;28;20040;-63
2023/01/10 02:47:37;;;;;;;8.13;5.40;;;;;;;;;;5068270;28;20397;-59
2023/01/10 02:50:28;;;;;;;7.50;4.93;;;;;;;;;;5073190;28;20033;-57
2023/01/10 02:52:58;;;;;;;8.02;5.70;;;;;;;;;;5072969;28;20493;-59
2023/01/10 02:55:42;;;;;;;6.07;5.20;;;;;;;;;;5072993;28;20017;-63
2023/01/10 02:58:30;;;;;;;5.75;4.72;;;;;;;;;;5072871;28;20020;-58
2023/01/10 03:01:14;;;;;;;9.43;5.40;;;;;;;;;;5055156;28;20020;-59
2023/01/10 03:03:51;;;;;;;6.78;5.20;;;;;;;;;;5072698;28;20025;-63
2023/01/10 03:06:35;;;;;;;6.45;4.82;;;;;;;;;;5072771;28;20028;-59
2023/01/10 03:09:14;;;;;;;7.20;4.82;;;;;;;;;;5072632;28;20119;-64
2023/01/10 03:11:43;;;;;;;7.63;5.40;;;;;;;;;;5054859;28;20042;-59
2023/01/10 03:14:23;;;;;;;7.95;5.15;;;;;;;;;;5072980;28;20032;-61
2023/01/10 03:16:56;;;;;;;7.72;5.35;;;;;;;;;;5072608;28;20032;-63
2023/01/10 03:19:25;;;;;;;6.82;5.05;;;;;;;;;;5072683;28;20032;-59
2023/01/10 03:21:55;;;;;;;7.30;5.00;;;;;;;;;;5072704;28;20025;-61
2023/01/10 03:24:32;;;;;;;8.30;5.90;;;;;;;;;;5072720;28;20047;-60
2023/01/10 03:27:21;;;;;;;8.48;5.40;;;;;;;;;;5072579;28;20032;-61
2023/01/10 03:29:58;;;;;;;6.03;4.80;;;;;;;;;;5072409;28;20028;-57
2023/01/10 03:32:27;;;;;;;6.03;4.65;;;;;;;;;;5072545;28;20047;-57
2023/01/10 03:34:53;;;;;;;6.35;5.65;;;;;;;;;;5072507;28;20024;-58
2023/01/10 03:37:40;;;;;;;6.15;4.97;;;;;;;;;;5072514;28;20149;-58
2023/01/10 03:40:13;;;;;;;6.60;5.03;;;;;;;;;;5072309;28;20016;-59
2023/01/10 03:46:08;;;;;;;6.18;4.90;;;;;;;;;;5072336;28;20128;-60
2023/01/10 03:48:36;;;;;;;6.75;5.03;;;;;;;;;;5072084;28;20029;-59
2023/01/10 03:51:04;;;;;;;7.95;5.10;;;;;;;;;;5072044;28;20111;-59
2023/01/10 03:53:32;;;;;;;6.38;5.05;;;;;;;;;;5072095;28;20024;-59
2023/01/10 03:55:58;;;;;;;6.45;5.30;;;;;;;;;;5071945;28;20021;-59
2023/01/10 03:58:24;;;;;;;6.32;5.38;;;;;;;;;;5072117;28;20146;-59
2023/01/10 04:00:49;;;;;;;6.78;4.88;;;;;;;;;;5072024;28;20046;-59
2023/01/10 04:03:15;;;;;;;6.18;5.00;;;;;;;;;;5071963;28;20500;-59
2023/01/10 04:05:41;;;;;;;6.95;5.10;;;;;;;;;;5071921;28;20032;-59
2023/01/10 04:08:07;;;;;;;6.88;4.88;;;;;;;;;;5071812;28;20032;-59
2023/01/10 04:10:32;;;;;;;5.20;4.70;;;;;;;;;;5071828;28;20060;-59
2023/01/10 04:13:00;;;;;;;6.70;5.15;;;;;;;;;;5072127;28;20043;-57
2023/01/10 04:15:26;;;;;;;7.25;5.28;;;;;;;;;;5071808;28;20023;-59
2023/01/10 04:17:51;;;;;;;8.07;5.25;;;;;;;;;;5071824;28;20475;-59
2023/01/10 04:20:17;;;;;;;5.43;4.55;;;;;;;;;;5071813;28;20025;-59
2023/01/10 04:22:44;;;;;;;8.95;5.15;;;;;;;;;;5071923;28;20036;-59
2023/01/10 04:25:10;;;;;;;6.90;5.10;;;;;;;;;;5071722;28;20041;-59
2023/01/10 04:27:36;;;;;;;6.75;4.80;;;;;;;;;;5072042;28;20024;-59
2023/01/10 04:30:02;;;;;;;6.13;5.32;;;;;;;;;;5071963;28;20024;-59
2023/01/10 04:32:27;;;;;;;6.82;5.40;;;;;;;;;;5071995;28;20048;-60
2023/01/10 04:34:53;;;;;;;7.30;5.10;;;;;;;;;;5071750;28;20391;-60
2023/01/10 04:37:18;;;;;;;5.50;4.72;;;;;;;;;;5071587;28;20524;-59
2023/01/10 04:39:44;;;;;;;6.35;5.15;;;;;;;;;;5071559;28;20029;-59
2023/01/10 04:42:10;;;;;;;6.10;5.05;;;;;;;;;;5053624;28;20024;-59
2023/01/10 04:44:36;;;;;;;5.97;4.78;;;;;;;;;;5071322;28;20047;-59
2023/01/10 04:47:01;;;;;;;7.25;5.30;;;;;;;;;;5071522;28;20063;-59
2023/01/10 04:49:27;;;;;;;6.35;4.88;;;;;;;;;;5071822;28;20417;-59
2023/01/10 04:51:53;;;;;;;6.72;5.00;;;;;;;;;;5071517;28;20025;-59
2023/01/10 04:54:20;;;;;;;5.47;4.70;;;;;;;;;;5071755;28;20115;-59
2023/01/10 04:56:45;;;;;;;6.15;4.97;;;;;;;;;;5071754;28;20078;-59
2023/01/10 04:59:11;;;;;;;5.85;4.70;;;;;;;;;;5074515;28;20016;-58
2023/01/10 05:01:37;;;;;;;6.47;4.93;;;;;;;;;;5075084;28;20041;-58
2023/01/10 05:04:05;;;;;;;8.32;4.63;;;;;;;;;;5075346;28;20349;-58
2023/01/10 05:06:30;;;;;;;5.70;4.72;;;;;;;;;;5075218;28;20025;-59
2023/01/10 05:08:56;;;;;;;6.68;4.50;;;;;;;;;;5074995;28;20035;-62
2023/01/10 05:11:23;;;;;;;7.72;4.70;;;;;;;;;;5075064;28;20028;-58
2023/01/10 05:13:48;;;;;;;6.25;5.22;;;;;;;;;;5075042;28;20036;-59
2023/01/10 05:16:14;;;;;;;5.78;4.80;;;;;;;;;;5074955;28;20388;-58
2023/01/10 05:18:40;;;;;;;5.57;4.60;;;;;;;;;;5074766;28;20031;-59
2023/01/10 05:21:09;;;;;;;5.35;4.38;;;;;;;;;;5074875;28;20024;-59
2023/01/10 05:23:35;;;;;;;5.50;4.53;;;;;;;;;;5074963;28;20491;-59
2023/01/10 05:26:09;;;;;;;5.53;4.55;;;;;;;;;;5074974;28;20039;-59
2023/01/10 05:28:36;;;;;;;5.82;4.88;;;;;;;;;;5074827;28;20431;-61
2023/01/10 05:31:01;;;;;;;5.60;4.55;;;;;;;;;;5074447;28;20089;-59
2023/01/10 05:33:27;;;;;;;6.95;5.00;;;;;;;;;;5074467;28;20017;-59
2023/01/10 05:35:53;;;;;;;6.43;4.55;;;;;;;;;;5074620;28;20024;-61
2023/01/10 05:38:18;;;;;;;5.18;4.50;;;;;;;;;;5074628;28;20107;-60
2023/01/10 05:40:44;;;;;;;6.68;4.90;;;;;;;;;;5074335;28;20028;-63
2023/01/10 05:43:10;;;;;;;5.53;4.43;;;;;;;;;;5074467;28;20083;-61
2023/01/10 05:45:36;;;;;;;5.32;4.75;;;;;;;;;;5074625;28;20380;-60
2023/01/10 05:48:02;;;;;;;6.88;4.63;;;;;;;;;;5074253;28;20029;-62
2023/01/10 05:50:28;;;;;;;7.00;4.97;;;;;;;;;;5074495;28;20070;-60
2023/01/10 05:52:53;;;;;;;6.70;5.25;;;;;;;;;;5074589;28;20028;-64
2023/01/10 05:55:19;;;;;;;5.75;4.93;;;;;;;;;;5074258;28;20107;-62
2023/01/10 05:57:44;;;;;;;5.00;4.45;;;;;;;;;;5074233;28;20169;-64
2023/01/10 06:00:10;;;;;;;5.80;4.72;;;;;;;;;;5074134;28;20036;-64
2023/01/10 06:02:36;;;;;;;5.40;4.45;;;;;;;;;;5073808;28;20419;-63
2023/01/10 06:05:02;;;;;;;5.72;4.80;;;;;;;;;;5054993;28;20025;-59
2023/01/10 06:07:27;;;;;;;5.90;4.70;;;;;;;;;;5072385;28;20409;-59
2023/01/10 06:09:53;;;;;;;7.10;4.60;;;;;;;;;;5071597;28;20116;-59
2023/01/10 06:12:18;;;;;;;5.72;4.95;;;;;;;;;;5073064;28;20020;-60
2023/01/10 06:14:44;;;;;;;5.10;4.60;;;;;;;;;;5055602;28;20028;-59
2023/01/10 06:17:10;;;;;;;5.82;4.88;;;;;;;;;;5055784;28;20035;-63
2023/01/10 06:19:36;;;;;;;5.53;4.70;;;;;;;;;;5073570;28;20384;-59
2023/01/10 06:22:04;;;;;;;5.97;4.75;;;;;;;;;;5073831;28;20376;-60
2023/01/10 06:24:30;;;;;;;5.72;4.72;;;;;;;;;;5073680;28;20025;-60
2023/01/10 06:26:55;;;;;;;6.30;4.72;;;;;;;;;;5073663;28;20077;-59
2023/01/10 06:29:22;;;;;;;6.13;4.80;;;;;;;;;;5073637;28;20032;-59
2023/01/10 06:31:47;;;;;;;6.43;5.00;;;;;;;;;;5073585;28;20032;-59
2023/01/10 06:34:13;;;;;;;5.70;4.57;;;;;;;;;;5073513;28;20380;-60
2023/01/10 06:36:39;;;;;;;5.90;4.50;;;;;;;;;;5073136;28;20028;-59
2023/01/10 06:39:04;;;;;;;6.57;5.00;;;;;;;;;;5073706;28;20028;-63
2023/01/10 06:41:30;;;;;;;5.80;4.57;;;;;;;;;;5055415;28;20502;-60
2023/01/10 06:43:55;;;;;;;6.53;4.65;;;;;;;;;;5073170;28;20045;-59
2023/01/10 06:46:21;;;;;;;6.45;4.45;;;;;;;;;;5073280;28;20027;-61
2023/01/10 06:48:47;;;;;;;5.53;4.47;;;;;;;;;;5067175;28;20029;-66
2023/01/10 06:51:14;;;;;;;4.47;4.07;;;;;;;;;;5068981;28;20063;-61
2023/01/10 06:53:40;;;;;;;7.18;4.68;;;;;;;;;;5071184;28;20028;-63
2023/01/10 06:56:08;;;;;;;5.07;4.50;;;;;;;;;;5071245;28;20048;-66
2023/01/10 06:58:37;;;;;;;4.75;4.25;;;;;;;;;;5067794;28;20032;-60
2023/01/10 07:01:04;;;;;;;5.53;4.50;;;;;;;;;;5067955;28;20020;-64
2023/01/10 07:03:30;;;;;;;5.35;4.40;;;;;;;;;;5069255;28;20368;-59
2023/01/10 07:06:01;;;;;;;5.68;4.60;;;;;;;;;;5067939;28;20662;-62
2023/01/10 07:08:26;;;;;;;6.38;4.32;;;;;;;;;;5068365;28;20465;-63
2023/01/10 07:10:52;;;;;;;6.30;4.70;;;;;;;;;;5068703;28;20040;-63
2023/01/10 07:13:17;;;;;;;6.38;4.72;;;;;;;;;;5071207;28;20021;-63
2023/01/10 07:15:43;;;;;;;6.28;5.10;;;;;;;;;;5071172;28;20031;-67
2023/01/10 07:18:08;;;;;;;6.93;4.45;;;;;;;;;;5068174;28;20024;-64
2023/01/10 07:20:34;;;;;;;6.60;4.47;;;;;;;;;;5052062;28;20029;-63
2023/01/10 07:23:00;;;;;;;5.80;4.47;;;;;;;;;;5070512;28;20040;-65
2023/01/10 07:25:28;;;;;;;6.45;4.70;;;;;;;;;;5070944;28;20039;-65
2023/01/10 07:27:56;;;;;;;6.65;4.55;;;;;;;;;;5070744;28;20025;-64
2023/01/10 07:30:23;;;;;;;5.55;4.43;;;;;;;;;;5071130;28;20078;-64
2023/01/10 07:32:56;;;;;;;6.20;4.68;;;;;;;;;;5070790;28;20400;-62
2023/01/10 07:35:23;;;;;;;7.35;4.75;;;;;;;;;;5070852;28;20090;-66
2023/01/10 07:37:48;;;;;;;6.43;5.03;;;;;;;;;;5070766;28;20484;-65
2023/01/10 07:40:14;;;;;;;4.88;4.13;;;;;;;;;;5071117;28;20040;-64
2023/01/10 07:42:39;;;;;;;6.47;4.45;;;;;;;;;;5070521;28;20064;-61
2023/01/10 07:45:07;;;;;;;5.97;4.40;;;;;;;;;;5070842;28;20028;-62
2023/01/10 07:47:33;;;;;;;5.18;4.65;;;;;;;;;;5070760;28;20016;-64
2023/01/10 07:49:58;;;;;;;5.40;4.45;;;;;;;;;;5070728;28;20039;-64
2023/01/10 07:52:24;;;;;;;7.47;4.82;;;;;;;;;;5070832;28;20029;-64
2023/01/10 07:54:49;;;;;;;5.03;4.43;;;;;;;;;;5051093;28;20793;-63
2023/01/10 07:57:15;;;;;;;6.10;4.43;;;;;;;;;;5069853;28;20384;-64
2023/01/10 07:59:40;;;;;;;5.63;4.78;;;;;;;;;;5069820;28;20372;-62
2023/01/10 08:02:09;;;;;;;5.43;4.20;;;;;;;;;;5069325;28;20653;-64
2023/01/10 08:04:35;;;;;;;6.10;4.72;;;;;;;;;;5069606;28;20100;-64
2023/01/10 08:07:00;;;;;;;5.07;4.18;;;;;;;;;;5067742;28;20135;-65
2023/01/10 08:09:26;;;;;;;6.20;4.55;;;;;;;;;;5070599;28;20036;-64
2023/01/10 08:11:52;;;;;;;6.35;4.45;;;;;;;;;;5070458;28;20548;-64
2023/01/10 08:14:17;;;;;;;5.13;4.38;;;;;;;;;;5070520;28;20104;-64
2023/01/10 08:16:43;;;;;;;7.65;5.50;;;;;;;;;;5069184;28;20114;-64
2023/01/10 08:19:11;;;;;;;5.25;4.05;;;;;;;;;;5070459;28;20028;-63
2023/01/10 08:21:36;;;;;;;5.30;4.22;;;;;;;;;;5069783;28;20038;-64
2023/01/10 08:24:02;;;;;;;6.45;4.47;;;;;;;;;;5070170;28;20108;-65
2023/01/10 08:26:28;;;;;;;5.00;4.30;;;;;;;;;;5068530;28;20112;-65
2023/01/10 08:28:53;;;;;;;6.10;4.22;;;;;;;;;;5067556;28;20052;-66
2023/01/10 08:31:19;;;;;;;5.32;4.20;;;;;;;;;;5069889;28;20056;-65
2023/01/10 08:33:45;;;;;;;4.82;3.92;;;;;;;;;;5054752;28;20040;-62
2023/01/10 08:36:15;;;;;;;5.60;4.30;;;;;;;;;;5074370;28;20033;-63
2023/01/10 08:38:41;;;;;;;5.68;4.35;;;;;;;;;;5073454;28;20484;-65
2023/01/10 08:41:06;;;;;;;4.63;4.13;;;;;;;;;;5073700;28;20032;-60
2023/01/10 08:43:32;;;;;;;4.63;4.05;;;;;;;;;;5073507;28;20059;-64
2023/01/10 08:45:57;;;;;;;4.40;3.90;;;;;;;;;;5072169;28;20503;-60
2023/01/10 08:48:23;;;;;;;8.77;7.38;;;;;;;;;;5073762;28;20037;-60
2023/01/10 08:50:48;;;;;;;6.80;6.10;;;;;;;;;;5073759;28;20117;-60
2023/01/10 08:53:14;;;;;;;8.00;6.28;;;;;;;;;;5073341;28;20306;-62
2023/01/10 08:55:39;;;;;;;9.15;8.30;;;;;;;;;;5072372;28;20119;-64
2023/01/10 08:58:05;;;;;;;9.30;8.32;;;;;;;;;;5072867;28;20025;-62
2023/01/10 09:00:30;;;;;;;11.55;8.00;;;;;;;;;;5072836;28;20024;-59
2023/01/10 09:02:56;;;;;;;8.65;7.75;;;;;;;;;;5073087;28;20078;-62
2023/01/10 09:05:22;;;;;;;8.70;7.07;;;;;;;;;;5069915;28;20052;-58
2023/01/10 09:07:48;;;;;;;6.18;5.40;;;;;;;;;;5070479;28;20154;-60
2023/01/10 09:10:13;;;;;;;6.70;5.00;;;;;;;;;;5070875;28;20819;-64
2023/01/10 09:12:54;;;;;;;6.28;4.90;;;;;;;;;;5073290;28;20025;-65
2023/01/10 09:15:26;;;;;;;4.63;4.22;;;;;;;;;;5073382;28;20115;-63
2023/01/10 09:18:00;;;;;;;4.43;3.90;;;;;;;;;;5071184;28;20032;-61
2023/01/10 09:20:27;;;;;;;4.72;3.60;;;;;;;;;;5072312;28;20567;-59
2023/01/10 09:22:53;;;;;;;6.18;3.80;;;;;;;;;;5073469;28;20506;-59
2023/01/10 09:25:18;;;;;;;3.63;3.25;;;;;;;;;;5070821;28;20028;-57
2023/01/10 09:27:44;;;;;;;3.80;3.38;;;;;;;;;;5070989;28;20027;-58
2023/01/10 09:30:10;;;;;;;2.95;2.72;;;;;;;;;;5072473;28;20511;-60
2023/01/10 09:32:36;;;;;;;4.22;3.10;;;;;;;;;;5072602;28;20032;-57
2023/01/10 09:35:02;;;;;;;3.83;3.38;;;;;;;;;;5073355;28;20473;-58
2023/01/10 09:37:28;;;;;;;5.63;3.33;;;;;;;;;;5055140;28;20565;-59
2023/01/10 09:39:54;;;;;;;2.80;2.60;;;;;;;;;;5072495;28;20116;-64
2023/01/10 09:42:41;;;;;;;4.20;2.60;;;;;;;;;;5070165;28;20025;-63
2023/01/10 09:45:31;;;;;;;6.25;2.80;;;;;;;;;;5070966;28;20040;-59
2023/01/10 09:48:07;;;;;;;3.65;2.78;;;;;;;;;;5072995;28;20449;-63
2023/01/10 09:50:57;;;;;;;3.97;2.50;;;;;;;;;;5071244;28;20389;-59
2023/01/10 09:53:24;;;;;;;;;;;;;;;;;;5062775;28;20042;-61
2023/01/10 09:55:55;;;;;;;2.72;2.53;;;;;;;;;;5072281;28;19958;-64
2023/01/10 09:58:28;;;;;;;3.55;2.22;;;;;;;;;;5072691;28;20025;-58
2023/01/10 10:01:00;;;;;;;2.75;2.55;;;;;;;;;;5071312;28;20036;-59
2023/01/10 10:03:39;;;;;;;2.78;2.50;;;;;;;;;;5072067;28;20111;-60
2023/01/10 10:06:05;;;;;;;5.32;3.45;;;;;;;;;;5072916;28;20048;-59
2023/01/10 10:08:30;;;;;;;2.95;2.65;;;;;;;;;;5072518;28;20121;-56
2023/01/10 10:11:21;;;;;;;2.85;2.60;;;;;;;;;;5072670;28;20430;-58
2023/01/10 10:13:53;;;;;;;;;;;;;;;;;;5071798;28;20362;-58
2023/01/10 10:16:27;;;;;;;3.35;2.90;;;;;;;;;;5052508;28;19947;-58
2023/01/10 10:19:36;;;;;;;4.30;2.60;;;;;;;;;;5052404;28;20024;-58
2023/01/10 10:22:04;;;;;;;2.72;2.40;;;;;;;;;;5052654;28;20091;-58
2023/01/10 10:24:54;;;;;;;3.00;2.70;;;;;;;;;;5052386;28;20086;-56
2023/01/10 10:28:12;;;;;;;3.08;2.78;;;;;;;;;;5052381;28;20052;-61
2023/01/10 10:30:49;;;;;;;3.00;2.70;;;;;;;;;;5024443;28;20519;-56
2023/01/10 10:33:29;;;;;;;4.85;2.60;;;;;;;;;;5072407;28;20033;-60
2023/01/10 10:36:07;;;;;;;3.33;2.50;;;;;;;;;;5072038;28;20475;-61
2023/01/10 10:38:37;;;;;;;3.20;2.63;;;;;;;;;;5072139;28;20408;-58
2023/01/10 10:41:03;;;;;;;2.95;2.67;;;;;;;;;;5070049;28;20041;-59
2023/01/10 10:43:38;;;;;;;3.38;2.80;;;;;;;;;;5071628;28;20139;-60
2023/01/10 10:46:09;;;;;;;2.45;2.22;;;;;;;;;;5071808;28;20469;-62
2023/01/10 10:48:46;;;;;;;2.63;2.40;;;;;;;;;;5071827;28;20024;-58
2023/01/10 10:51:41;;;;;;;2.50;2.30;;;;;;;;;;5071863;28;20063;-59
2023/01/10 10:54:11;;;;;;;4.63;2.80;;;;;;;;;;5071751;28;20024;-60
2023/01/10 10:56:36;;;;;;;3.28;2.40;;;;;;;;;;5053258;28;20441;-61
2023/01/10 10:59:03;;;;;;;2.95;2.60;;;;;;;;;;5071663;28;20060;-59
2023/01/10 11:01:29;;;;;;;2.70;2.50;;;;;;;;;;5071415;28;20032;-60
2023/01/10 11:04:01;;;;;;;2.90;2.45;;;;;;;;;;5071522;28;20025;-59
2023/01/10 11:06:29;;;;;;;2.85;2.60;;;;;;;;;;5071812;28;20035;-59
2023/01/10 11:09:03;;;;;;;2.67;2.47;;;;;;;;;;5069895;28;20052;-58
2023/01/10 11:11:33;;;;;;;2.47;2.28;;;;;;;;;;5068729;28;20488;-58
2023/01/10 11:14:04;;;;;;;2.42;2.22;;;;;;;;;;5071359;28;20025;-59
2023/01/10 11:16:35;;;;;;;2.70;2.50;;;;;;;;;;5070233;28;20028;-58
2023/01/10 11:19:18;;;;;;;2.60;2.40;;;;;;;;;;5070250;28;20083;-58
2023/01/10 11:21:49;;;;;;;2.42;2.20;;;;;;;;;;5070102;28;20034;-61
2023/01/10 11:24:22;;;;;;;4.00;2.45;;;;;;;;;;5069724;28;20028;-60
2023/01/10 11:26:48;;;;;;;3.20;2.70;;;;;;;;;;5071195;28;20013;-59
2023/01/10 11:29:19;;;;;;;2.88;2.25;;;;;;;;;;5070927;28;20051;-59
2023/01/10 11:31:45;;;;;;;;;;;;;;;;;;5071431;28;20029;-65
2023/01/10 11:34:41;;;;;;;3.38;2.47;;;;;;;;;;5070898;28;20352;-59
2023/01/10 11:37:15;;;;;;;2.55;2.35;;;;;;;;;;5054113;28;20094;-57
2023/01/10 11:39:41;;;;;;;3.38;2.40;;;;;;;;;;5071054;28;20040;-63
2023/01/10 11:42:28;;;;;;;2.92;2.50;;;;;;;;;;5070817;28;20073;-63
2023/01/10 11:44:55;;;;;;;3.05;2.30;;;;;;;;;;5070708;28;20059;-61
2023/01/10 11:47:21;;;;;;;3.47;2.38;;;;;;;;;;5070801;28;20099;-61
2023/01/10 11:49:48;;;;;;;3.15;2.42;;;;;;;;;;5070782;28;20103;-63
2023/01/10 11:52:26;;;;;;;2.45;2.00;;;;;;;;;;5070436;28;20040;-62
2023/01/10 11:54:55;;;;;;;2.40;2.20;;;;;;;;;;5070331;28;20032;-63
2023/01/10 11:57:26;;;;;;;2.90;2.55;;;;;;;;;;5070711;28;20481;-64
2023/01/10 12:00:04;;;;;;;3.08;2.42;;;;;;;;;;5070556;28;20423;-62
2023/01/10 12:02:34;;;;;;;2.53;2.33;;;;;;;;;;5070756;28;20158;-60
2023/01/10 12:05:04;;;;;;;2.30;2.10;;;;;;;;;;5070788;28;20134;-61
2023/01/10 12:07:29;;;;;;;3.78;2.55;;;;;;;;;;5069870;28;20407;-61
2023/01/10 12:09:57;;;;;;;2.35;2.15;;;;;;;;;;5070455;28;20020;-57
2023/01/10 12:12:25;;;;;;;3.40;2.10;;;;;;;;;;5070476;28;20484;-64
2023/01/10 12:14:53;;;;;;;7.45;2.67;;;;;;;;;;5070746;28;20066;-64
2023/01/10 12:17:26;;;;;;;3.30;2.38;;;;;;;;;;5070552;28;20033;-58
2023/01/10 12:19:55;;;;;;;3.40;2.50;;;;;;;;;;5052573;28;20024;-61
2023/01/10 12:22:34;;;;;;;3.42;2.55;;;;;;;;;;5070803;28;20016;-57
2023/01/10 12:25:04;;;;;;;3.63;2.30;;;;;;;;;;5070405;28;20021;-63
2023/01/10 12:27:31;;;;;;;3.38;2.50;;;;;;;;;;5070371;28;20025;-59
2023/01/10 12:30:10;;;;;;;2.38;2.17;;;;;;;;;;5070283;28;20020;-63
2023/01/10 12:32:42;;;;;;;2.40;2.20;;;;;;;;;;5070208;28;20025;-60
2023/01/10 12:35:39;;;;;;;2.45;2.15;;;;;;;;;;5070331;28;20039;-61
2023/01/10 12:38:21;;;;;;;2.58;2.38;;;;;;;;;;5070184;28;20082;-60
2023/01/10 12:40:53;;;;;;;2.33;2.10;;;;;;;;;;5070155;28;20032;-59
2023/01/10 12:46:25;;;;;;;3.08;2.40;;;;;;;;;;5050272;28;20083;-61
2023/01/10 12:49:00;;;;;;;3.67;2.72;;;;;;;;;;5050171;28;20496;-58
2023/01/10 12:51:29;;;;;;;2.70;2.22;;;;;;;;;;5050543;28;20041;-57
2023/01/10 12:54:00;;;;;;;3.75;2.58;;;;;;;;;;5049910;28;20130;-60
2023/01/10 12:56:27;;;;;;;3.25;2.72;;;;;;;;;;5048932;28;20025;-60
2023/01/10 12:59:19;;;;;;;3.28;2.47;;;;;;;;;;5048940;28;20036;-65
2023/01/10 13:01:51;;;;;;;4.53;2.53;;;;;;;;;;5047865;28;20374;-64
2023/01/10 13:04:21;;;;;;;3.47;2.83;;;;;;;;;;5050096;28;20120;-65
2023/01/10 13:06:49;;;;;;;5.85;2.50;;;;;;;;;;5048712;28;20098;-58
2023/01/10 13:09:21;;;;;;;4.35;2.70;;;;;;;;;;5049835;28;20043;-58
2023/01/10 13:11:53;;;;;;;3.75;2.65;;;;;;;;;;5050310;28;20438;-59
2023/01/10 13:14:26;;;;;;;3.83;2.70;;;;;;;;;;5049524;28;20029;-60
2023/01/10 13:16:57;;;;;;;3.50;2.60;;;;;;;;;;5050169;28;20427;-57
2023/01/10 13:19:27;;;;;;;2.78;2.53;;;;;;;;;;5051719;28;20491;-60
2023/01/10 13:22:17;;;;;;;3.40;2.42;;;;;;;;;;5053522;28;20669;-58
2023/01/10 13:24:54;;;;;;;2.50;2.30;;;;;;;;;;5053524;28;20108;-61
2023/01/10 13:27:20;;;;;;;2.70;2.45;;;;;;;;;;5053518;28;20362;-59
2023/01/10 13:29:47;;;;;;;3.38;2.70;;;;;;;;;;5053430;28;20040;-63
2023/01/10 13:32:27;;;;;;;3.55;2.42;;;;;;;;;;5051894;28;20067;-65
2023/01/10 13:34:54;;;;;;;3.70;2.37;;;;;;;;;;5053307;28;20021;-62
2023/01/10 13:37:41;;;;;;;4.15;2.40;;;;;;;;;;5052089;28;20424;-59
2023/01/10 13:40:19;;;;;;;2.60;2.40;;;;;;;;;;5053404;28;20350;-59
2023/01/10 13:45:30;;;;;;;3.17;2.65;;;;;;;;;;5072967;28;20032;-59
2023/01/10 13:47:57;;;;;;;3.28;2.53;;;;;;;;;;5072923;28;20058;-59
2023/01/10 13:50:41;;;;;;;3.45;2.53;;;;;;;;;;5073197;28;20099;-59
2023/01/10 13:53:07;;;;;;;3.20;2.63;;;;;;;;;;5072842;28;20044;-58
2023/01/10 13:55:45;;;;;;;3.65;2.40;;;;;;;;;;5072843;28;20177;-62
2023/01/10 13:58:16;;;;;;;2.90;2.33;;;;;;;;;;5072729;28;20031;-59
2023/01/10 14:03:58;;;;;;;3.50;2.47;;;;;;;;;;5072893;28;20063;-58
2023/01/10 14:06:26;;;;;;;2.30;2.10;;;;;;;;;;5072764;28;20036;-59
2023/01/10 14:09:06;;;;;;;2.78;2.45;;;;;;;;;;5072681;28;20479;-60
2023/01/10 14:11:48;;;;;;;3.08;2.22;;;;;;;;;;5072592;28;20039;-58
2023/01/10 14:14:20;;;;;;;2.45;2.25;;;;;;;;;;5072607;28;20116;-54
2023/01/10 14:16:49;;;;;;;2.70;2.33;;;;;;;;;;5072837;28;20074;-61
2023/01/10 14:19:33;;;;;;;3.15;2.50;;;;;;;;;;5072228;28;20090;-60
2023/01/10 14:22:01;;;;;;;2.85;2.17;;;;;;;;;;5054193;28;20028;-59
2023/01/10 14:24:34;;;;;;;2.95;2.45;;;;;;;;;;5071879;28;20112;-62
2023/01/10 14:27:01;;;;;;;2.90;2.60;;;;;;;;;;5072294;28;20028;-58
2023/01/10 14:29:30;;;;;;;3.08;2.67;;;;;;;;;;5072265;28;20033;-60
2023/01/10 14:31:58;;;;;;;3.13;2.28;;;;;;;;;;5071450;28;20032;-60
2023/01/10 14:34:34;;;;;;;2.45;2.25;;;;;;;;;;5071055;28;20028;-59
2023/01/10 14:37:07;;;;;;;4.05;2.30;;;;;;;;;;5052709;28;20158;-64
2023/01/10 14:39:34;;;;;;;3.65;2.35;;;;;;;;;;5071435;28;20376;-60
2023/01/10 14:42:07;;;;;;;2.90;2.20;;;;;;;;;;5068978;28;20146;-58
2023/01/10 14:44:44;;;;;;;2.83;2.28;;;;;;;;;;5050089;28;20785;-59
2023/01/10 14:47:29;;;;;;;3.47;2.22;;;;;;;;;;5051845;28;20032;-52
2023/01/10 14:50:00;;;;;;;2.28;2.08;;;;;;;;;;5051812;28;20021;-59
2023/01/10 14:52:26;;;;;;;2.72;2.33;;;;;;;;;;5052012;28;20017;-59
2023/01/10 14:55:12;;;;;;;2.58;2.38;;;;;;;;;;5050634;28;20094;-58
2023/01/10 14:57:38;;;;;;;3.03;2.25;;;;;;;;;;5053231;28;20261;-59
2023/01/10 15:00:15;;;;;;;2.22;2.00;;;;;;;;;;5053434;28;20390;-58
2023/01/10 15:02:45;;;;;;;2.58;2.38;;;;;;;;;;5053412;28;20052;-59
2023/01/10 15:05:18;;;;;;;;;;;;;;;;;;5053652;28;20021;-59
2023/01/10 15:07:44;;;;;;;2.42;2.22;;;;;;;;;;5053479;28;20360;-60
2023/01/10 15:10:23;;;;;;;2.33;2.13;;;;;;;;;;5052935;28;20108;-59
2023/01/10 15:12:55;;;;;;;2.38;2.10;;;;;;;;;;5052905;28;20057;-59
2023/01/10 15:15:31;;;;;;;2.55;2.10;;;;;;;;;;5053251;28;20029;-60
2023/01/10 15:17:59;;;;;;;2.45;2.20;;;;;;;;;;5053106;28;20021;-59
2023/01/10 15:20:26;;;;;;;2.72;2.17;;;;;;;;;;5052768;28;20366;-59